sensor_id;sensor_type;location;lat;lon;timestamp;P1;durP1;ratioP1;P2;durP2;ratioP2
30420;SDS011;17218;54.070;10.012;2022-09-09T00:00:17;28.38;;;25.30;;
30420;SDS011;17218;54.070;10.012;2022-09-09T00:02:47;28.50;;;25.08;;
30420;SDS011;17218;54.070;10.012;2022-09-09T00:05:23;29.67;;;25.35;;
30420;SDS011;17218;54.070;10.012;2022-09-09T00:07:58;32.03;;;26.23;;
30420;SDS011;17218;54.070;10.012;2022-09-09T00:10:29;30.98;;;27.08;;
30420;SDS011;17218;54.070;10.012;2022-09-09T00:13:00;29.27;;;25.52;;
30420;SDS011;17218;54.070;10.012;2022-09-09T00:15:34;28.52;;;25.38;;
30420;SDS011;17218;54.070;10.012;2022-09-09T00:18:12;31.00;;;27.13;;
30420;SDS011;17218;54.070;10.012;2022-09-09T00:20:48;29.38;;;25.02;;
30420;SDS011;17218;54.070;10.012;2022-09-09T00:23:21;32.08;;;27.60;;
30420;SDS011;17218;54.070;10.012;2022-09-09T00:25:54;32.42;;;27.63;;
30420;SDS011;17218;54.070;10.012;2022-09-09T00:28:28;29.58;;;26.30;;
30420;SDS011;17218;54.070;10.012;2022-09-09T00:30:57;31.33;;;26.63;;
30420;SDS011;17218;54.070;10.012;2022-09-09T00:33:35;31.80;;;26.10;;
30420;SDS011;17218;54.070;10.012;2022-09-09T00:36:02;30.80;;;25.80;;
30420;SDS011;17218;54.070;10.012;2022-09-09T00:38:33;31.90;;;26.70;;
30420;SDS011;17218;54.070;10.012;2022-09-09T00:41:03;33.05;;;28.92;;
30420;SDS011;17218;54.070;10.012;2022-09-09T00:43:35;30.67;;;26.38;;
30420;SDS011;17218;54.070;10.012;2022-09-09T00:49:02;31.65;;;26.63;;
30420;SDS011;17218;54.070;10.012;2022-09-09T00:51:38;33.58;;;28.27;;
30420;SDS011;17218;54.070;10.012;2022-09-09T00:54:22;33.55;;;27.33;;
30420;SDS011;17218;54.070;10.012;2022-09-09T00:57:02;33.10;;;27.90;;
30420;SDS011;17218;54.070;10.012;2022-09-09T00:59:40;36.42;;;28.73;;
30420;SDS011;17218;54.070;10.012;2022-09-09T01:02:13;32.60;;;27.23;;
30420;SDS011;17218;54.070;10.012;2022-09-09T01:04:49;36.42;;;28.77;;
30420;SDS011;17218;54.070;10.012;2022-09-09T01:07:16;35.63;;;28.00;;
30420;SDS011;17218;54.070;10.012;2022-09-09T01:09:51;36.03;;;26.27;;
30420;SDS011;17218;54.070;10.012;2022-09-09T01:12:26;36.90;;;29.40;;
30420;SDS011;17218;54.070;10.012;2022-09-09T01:15:01;33.35;;;27.13;;
30420;SDS011;17218;54.070;10.012;2022-09-09T01:17:35;38.92;;;27.52;;
30420;SDS011;17218;54.070;10.012;2022-09-09T01:20:12;36.33;;;27.00;;
30420;SDS011;17218;54.070;10.012;2022-09-09T01:22:44;37.72;;;27.98;;
30420;SDS011;17218;54.070;10.012;2022-09-09T01:25:27;37.80;;;26.85;;
30420;SDS011;17218;54.070;10.012;2022-09-09T01:27:58;38.50;;;25.73;;
30420;SDS011;17218;54.070;10.012;2022-09-09T01:30:28;32.20;;;25.88;;
30420;SDS011;17218;54.070;10.012;2022-09-09T01:32:55;35.28;;;26.95;;
30420;SDS011;17218;54.070;10.012;2022-09-09T01:35:31;35.63;;;27.10;;
30420;SDS011;17218;54.070;10.012;2022-09-09T01:38:03;37.08;;;27.45;;
30420;SDS011;17218;54.070;10.012;2022-09-09T01:40:30;36.40;;;26.83;;
30420;SDS011;17218;54.070;10.012;2022-09-09T01:42:59;35.85;;;27.85;;
30420;SDS011;17218;54.070;10.012;2022-09-09T01:45:25;35.53;;;27.95;;
30420;SDS011;17218;54.070;10.012;2022-09-09T01:47:52;40.83;;;28.13;;
30420;SDS011;17218;54.070;10.012;2022-09-09T01:50:19;37.65;;;28.38;;
30420;SDS011;17218;54.070;10.012;2022-09-09T01:52:46;39.60;;;29.90;;
30420;SDS011;17218;54.070;10.012;2022-09-09T01:55:16;41.90;;;29.85;;
30420;SDS011;17218;54.070;10.012;2022-09-09T01:57:48;37.30;;;27.20;;
30420;SDS011;17218;54.070;10.012;2022-09-09T02:00:25;41.15;;;27.52;;
30420;SDS011;17218;54.070;10.012;2022-09-09T02:02:54;36.15;;;26.92;;
30420;SDS011;17218;54.070;10.012;2022-09-09T02:05:27;40.03;;;29.13;;
30420;SDS011;17218;54.070;10.012;2022-09-09T02:08:03;44.17;;;28.35;;
30420;SDS011;17218;54.070;10.012;2022-09-09T02:10:33;37.92;;;27.83;;
30420;SDS011;17218;54.070;10.012;2022-09-09T02:13:07;39.53;;;28.40;;
30420;SDS011;17218;54.070;10.012;2022-09-09T02:15:40;41.17;;;27.13;;
30420;SDS011;17218;54.070;10.012;2022-09-09T02:18:11;40.58;;;28.60;;
30420;SDS011;17218;54.070;10.012;2022-09-09T02:20:41;46.42;;;29.63;;
30420;SDS011;17218;54.070;10.012;2022-09-09T02:23:09;42.22;;;28.52;;
30420;SDS011;17218;54.070;10.012;2022-09-09T02:25:38;39.47;;;27.92;;
30420;SDS011;17218;54.070;10.012;2022-09-09T02:28:08;41.83;;;29.05;;
30420;SDS011;17218;54.070;10.012;2022-09-09T02:30:39;42.70;;;28.27;;
30420;SDS011;17218;54.070;10.012;2022-09-09T02:33:08;48.20;;;30.42;;
30420;SDS011;17218;54.070;10.012;2022-09-09T02:35:37;45.10;;;30.50;;
30420;SDS011;17218;54.070;10.012;2022-09-09T02:38:06;48.30;;;30.70;;
30420;SDS011;17218;54.070;10.012;2022-09-09T02:40:36;46.15;;;31.65;;
30420;SDS011;17218;54.070;10.012;2022-09-09T02:43:03;47.75;;;31.60;;
30420;SDS011;17218;54.070;10.012;2022-09-09T02:45:32;49.63;;;32.42;;
30420;SDS011;17218;54.070;10.012;2022-09-09T02:48:09;53.53;;;32.63;;
30420;SDS011;17218;54.070;10.012;2022-09-09T02:50:41;48.17;;;32.45;;
30420;SDS011;17218;54.070;10.012;2022-09-09T02:53:16;45.75;;;30.75;;
30420;SDS011;17218;54.070;10.012;2022-09-09T02:55:46;42.85;;;30.55;;
30420;SDS011;17218;54.070;10.012;2022-09-09T02:58:14;46.15;;;30.70;;
30420;SDS011;17218;54.070;10.012;2022-09-09T03:00:43;46.33;;;31.45;;
30420;SDS011;17218;54.070;10.012;2022-09-09T03:03:12;46.70;;;30.90;;
30420;SDS011;17218;54.070;10.012;2022-09-09T03:05:41;45.03;;;29.90;;
30420;SDS011;17218;54.070;10.012;2022-09-09T03:08:07;49.38;;;32.28;;
30420;SDS011;17218;54.070;10.012;2022-09-09T03:10:34;45.78;;;31.70;;
30420;SDS011;17218;54.070;10.012;2022-09-09T03:13:02;45.75;;;30.45;;
30420;SDS011;17218;54.070;10.012;2022-09-09T03:15:29;47.35;;;30.27;;
30420;SDS011;17218;54.070;10.012;2022-09-09T03:17:56;45.33;;;30.05;;
30420;SDS011;17218;54.070;10.012;2022-09-09T03:20:24;44.45;;;30.98;;
30420;SDS011;17218;54.070;10.012;2022-09-09T03:22:52;39.45;;;28.85;;
30420;SDS011;17218;54.070;10.012;2022-09-09T03:25:19;40.42;;;29.17;;
30420;SDS011;17218;54.070;10.012;2022-09-09T03:27:46;43.38;;;28.95;;
30420;SDS011;17218;54.070;10.012;2022-09-09T03:30:12;43.05;;;29.85;;
30420;SDS011;17218;54.070;10.012;2022-09-09T03:32:40;40.65;;;28.70;;
30420;SDS011;17218;54.070;10.012;2022-09-09T03:35:06;40.05;;;29.10;;
30420;SDS011;17218;54.070;10.012;2022-09-09T03:37:35;39.75;;;29.20;;
30420;SDS011;17218;54.070;10.012;2022-09-09T03:40:04;44.03;;;31.80;;
30420;SDS011;17218;54.070;10.012;2022-09-09T03:42:31;41.20;;;28.60;;
30420;SDS011;17218;54.070;10.012;2022-09-09T03:44:57;45.67;;;33.05;;
30420;SDS011;17218;54.070;10.012;2022-09-09T03:47:24;41.45;;;29.67;;
30420;SDS011;17218;54.070;10.012;2022-09-09T03:49:51;41.03;;;30.58;;
30420;SDS011;17218;54.070;10.012;2022-09-09T03:52:17;41.53;;;29.88;;
30420;SDS011;17218;54.070;10.012;2022-09-09T03:54:46;43.70;;;30.08;;
30420;SDS011;17218;54.070;10.012;2022-09-09T03:57:12;47.45;;;31.25;;
30420;SDS011;17218;54.070;10.012;2022-09-09T03:59:41;44.15;;;31.25;;
30420;SDS011;17218;54.070;10.012;2022-09-09T04:02:08;38.20;;;29.08;;
30420;SDS011;17218;54.070;10.012;2022-09-09T04:04:35;42.20;;;29.15;;
30420;SDS011;17218;54.070;10.012;2022-09-09T04:07:02;38.83;;;27.85;;
30420;SDS011;17218;54.070;10.012;2022-09-09T04:09:31;37.83;;;29.08;;
30420;SDS011;17218;54.070;10.012;2022-09-09T04:11:58;35.65;;;28.33;;
30420;SDS011;17218;54.070;10.012;2022-09-09T04:14:25;34.63;;;27.38;;
30420;SDS011;17218;54.070;10.012;2022-09-09T04:16:53;37.72;;;27.38;;
30420;SDS011;17218;54.070;10.012;2022-09-09T04:19:21;39.45;;;28.27;;
30420;SDS011;17218;54.070;10.012;2022-09-09T04:21:47;38.30;;;28.60;;
30420;SDS011;17218;54.070;10.012;2022-09-09T04:24:16;37.53;;;29.02;;
30420;SDS011;17218;54.070;10.012;2022-09-09T04:26:43;39.38;;;29.80;;
30420;SDS011;17218;54.070;10.012;2022-09-09T04:29:11;40.28;;;30.42;;
30420;SDS011;17218;54.070;10.012;2022-09-09T04:31:38;40.55;;;30.30;;
30420;SDS011;17218;54.070;10.012;2022-09-09T04:34:06;46.97;;;31.23;;
30420;SDS011;17218;54.070;10.012;2022-09-09T04:36:33;44.38;;;32.15;;
30420;SDS011;17218;54.070;10.012;2022-09-09T04:39:00;47.75;;;32.30;;
30420;SDS011;17218;54.070;10.012;2022-09-09T04:41:27;46.90;;;31.00;;
30420;SDS011;17218;54.070;10.012;2022-09-09T04:43:53;48.15;;;32.13;;
30420;SDS011;17218;54.070;10.012;2022-09-09T04:46:21;48.17;;;32.33;;
30420;SDS011;17218;54.070;10.012;2022-09-09T04:48:48;47.17;;;32.15;;
30420;SDS011;17218;54.070;10.012;2022-09-09T04:51:16;52.35;;;33.33;;
30420;SDS011;17218;54.070;10.012;2022-09-09T04:53:43;51.78;;;32.25;;
30420;SDS011;17218;54.070;10.012;2022-09-09T04:56:10;50.35;;;33.65;;
30420;SDS011;17218;54.070;10.012;2022-09-09T04:58:38;49.20;;;32.90;;
30420;SDS011;17218;54.070;10.012;2022-09-09T05:01:08;51.25;;;32.42;;
30420;SDS011;17218;54.070;10.012;2022-09-09T05:03:37;53.75;;;33.78;;
30420;SDS011;17218;54.070;10.012;2022-09-09T05:06:05;52.40;;;34.38;;
30420;SDS011;17218;54.070;10.012;2022-09-09T05:08:33;51.88;;;33.90;;
30420;SDS011;17218;54.070;10.012;2022-09-09T05:11:00;48.53;;;31.65;;
30420;SDS011;17218;54.070;10.012;2022-09-09T05:13:26;47.80;;;30.95;;
30420;SDS011;17218;54.070;10.012;2022-09-09T05:15:53;47.70;;;31.55;;
30420;SDS011;17218;54.070;10.012;2022-09-09T05:18:20;45.10;;;30.45;;
30420;SDS011;17218;54.070;10.012;2022-09-09T05:20:48;43.70;;;30.08;;
30420;SDS011;17218;54.070;10.012;2022-09-09T05:23:16;45.78;;;30.52;;
30420;SDS011;17218;54.070;10.012;2022-09-09T05:25:42;46.22;;;30.90;;
30420;SDS011;17218;54.070;10.012;2022-09-09T05:28:09;46.22;;;29.80;;
30420;SDS011;17218;54.070;10.012;2022-09-09T05:30:36;46.20;;;30.60;;
30420;SDS011;17218;54.070;10.012;2022-09-09T05:33:03;48.78;;;31.02;;
30420;SDS011;17218;54.070;10.012;2022-09-09T05:35:31;46.83;;;29.83;;
30420;SDS011;17218;54.070;10.012;2022-09-09T05:38:00;47.90;;;30.80;;
30420;SDS011;17218;54.070;10.012;2022-09-09T05:40:26;46.92;;;30.80;;
30420;SDS011;17218;54.070;10.012;2022-09-09T05:42:54;45.15;;;30.77;;
30420;SDS011;17218;54.070;10.012;2022-09-09T05:45:20;45.42;;;29.58;;
30420;SDS011;17218;54.070;10.012;2022-09-09T05:47:50;46.55;;;30.10;;
30420;SDS011;17218;54.070;10.012;2022-09-09T05:50:18;43.40;;;29.52;;
30420;SDS011;17218;54.070;10.012;2022-09-09T05:52:44;39.00;;;26.48;;
30420;SDS011;17218;54.070;10.012;2022-09-09T05:55:12;42.28;;;27.92;;
30420;SDS011;17218;54.070;10.012;2022-09-09T05:57:38;44.65;;;29.08;;
30420;SDS011;17218;54.070;10.012;2022-09-09T06:00:05;40.55;;;27.48;;
30420;SDS011;17218;54.070;10.012;2022-09-09T06:02:33;39.97;;;27.27;;
30420;SDS011;17218;54.070;10.012;2022-09-09T06:05:02;34.97;;;25.10;;
30420;SDS011;17218;54.070;10.012;2022-09-09T06:07:28;34.20;;;25.48;;
30420;SDS011;17218;54.070;10.012;2022-09-09T06:09:55;34.38;;;25.88;;
30420;SDS011;17218;54.070;10.012;2022-09-09T06:12:23;38.28;;;26.98;;
30420;SDS011;17218;54.070;10.012;2022-09-09T06:14:49;35.15;;;24.70;;
30420;SDS011;17218;54.070;10.012;2022-09-09T06:17:16;36.25;;;24.83;;
30420;SDS011;17218;54.070;10.012;2022-09-09T06:19:43;36.33;;;25.20;;
30420;SDS011;17218;54.070;10.012;2022-09-09T06:22:09;34.83;;;24.95;;
30420;SDS011;17218;54.070;10.012;2022-09-09T06:24:37;32.17;;;24.20;;
30420;SDS011;17218;54.070;10.012;2022-09-09T06:27:04;36.47;;;25.38;;
30420;SDS011;17218;54.070;10.012;2022-09-09T06:29:32;35.53;;;25.02;;
30420;SDS011;17218;54.070;10.012;2022-09-09T06:31:59;33.33;;;23.65;;
30420;SDS011;17218;54.070;10.012;2022-09-09T06:34:25;36.28;;;25.67;;
30420;SDS011;17218;54.070;10.012;2022-09-09T06:36:52;33.70;;;25.00;;
30420;SDS011;17218;54.070;10.012;2022-09-09T06:39:19;33.28;;;25.08;;
30420;SDS011;17218;54.070;10.012;2022-09-09T06:41:46;33.38;;;24.40;;
30420;SDS011;17218;54.070;10.012;2022-09-09T06:44:13;32.53;;;24.50;;
30420;SDS011;17218;54.070;10.012;2022-09-09T06:46:41;33.50;;;24.27;;
30420;SDS011;17218;54.070;10.012;2022-09-09T06:49:08;32.30;;;24.13;;
30420;SDS011;17218;54.070;10.012;2022-09-09T06:51:36;31.67;;;22.98;;
30420;SDS011;17218;54.070;10.012;2022-09-09T06:54:07;30.27;;;22.90;;
30420;SDS011;17218;54.070;10.012;2022-09-09T06:56:34;33.08;;;23.08;;
30420;SDS011;17218;54.070;10.012;2022-09-09T06:59:02;26.50;;;22.42;;
30420;SDS011;17218;54.070;10.012;2022-09-09T07:01:31;25.60;;;20.77;;
30420;SDS011;17218;54.070;10.012;2022-09-09T07:04:00;26.15;;;20.25;;
30420;SDS011;17218;54.070;10.012;2022-09-09T07:06:29;27.40;;;19.92;;
30420;SDS011;17218;54.070;10.012;2022-09-09T07:08:58;23.70;;;19.30;;
30420;SDS011;17218;54.070;10.012;2022-09-09T07:11:26;26.33;;;19.85;;
30420;SDS011;17218;54.070;10.012;2022-09-09T07:13:54;24.15;;;18.70;;
30420;SDS011;17218;54.070;10.012;2022-09-09T07:16:23;25.40;;;19.02;;
30420;SDS011;17218;54.070;10.012;2022-09-09T07:18:49;21.73;;;17.88;;
30420;SDS011;17218;54.070;10.012;2022-09-09T07:21:18;22.58;;;18.85;;
30420;SDS011;17218;54.070;10.012;2022-09-09T07:23:45;19.50;;;17.40;;
30420;SDS011;17218;54.070;10.012;2022-09-09T07:26:12;22.95;;;16.35;;
30420;SDS011;17218;54.070;10.012;2022-09-09T07:28:40;21.15;;;17.85;;
30420;SDS011;17218;54.070;10.012;2022-09-09T07:31:12;21.27;;;17.67;;
30420;SDS011;17218;54.070;10.012;2022-09-09T07:33:41;21.17;;;17.67;;
30420;SDS011;17218;54.070;10.012;2022-09-09T07:36:09;21.88;;;17.50;;
30420;SDS011;17218;54.070;10.012;2022-09-09T07:38:40;20.13;;;16.58;;
30420;SDS011;17218;54.070;10.012;2022-09-09T07:41:08;20.65;;;18.10;;
30420;SDS011;17218;54.070;10.012;2022-09-09T07:43:37;20.70;;;17.63;;
30420;SDS011;17218;54.070;10.012;2022-09-09T07:46:05;22.60;;;17.98;;
30420;SDS011;17218;54.070;10.012;2022-09-09T07:48:32;22.38;;;17.15;;
30420;SDS011;17218;54.070;10.012;2022-09-09T07:51:03;19.88;;;17.45;;
30420;SDS011;17218;54.070;10.012;2022-09-09T07:53:35;20.45;;;17.60;;
30420;SDS011;17218;54.070;10.012;2022-09-09T07:56:05;21.48;;;18.15;;
30420;SDS011;17218;54.070;10.012;2022-09-09T07:58:34;19.45;;;16.92;;
30420;SDS011;17218;54.070;10.012;2022-09-09T08:01:05;18.88;;;16.35;;
30420;SDS011;17218;54.070;10.012;2022-09-09T08:03:32;19.67;;;15.20;;
30420;SDS011;17218;54.070;10.012;2022-09-09T08:06:00;20.30;;;15.63;;
30420;SDS011;17218;54.070;10.012;2022-09-09T08:08:27;17.52;;;15.80;;
30420;SDS011;17218;54.070;10.012;2022-09-09T08:11:00;17.23;;;14.05;;
30420;SDS011;17218;54.070;10.012;2022-09-09T08:13:33;16.33;;;13.55;;
30420;SDS011;17218;54.070;10.012;2022-09-09T08:16:04;16.17;;;13.52;;
30420;SDS011;17218;54.070;10.012;2022-09-09T08:18:33;15.02;;;12.45;;
30420;SDS011;17218;54.070;10.012;2022-09-09T08:21:04;13.35;;;11.95;;
30420;SDS011;17218;54.070;10.012;2022-09-09T08:23:32;13.02;;;11.05;;
30420;SDS011;17218;54.070;10.012;2022-09-09T08:26:02;14.18;;;11.95;;
30420;SDS011;17218;54.070;10.012;2022-09-09T08:28:30;12.73;;;11.27;;
30420;SDS011;17218;54.070;10.012;2022-09-09T08:31:05;11.85;;;10.38;;
30420;SDS011;17218;54.070;10.012;2022-09-09T08:33:36;11.50;;;10.25;;
30420;SDS011;17218;54.070;10.012;2022-09-09T08:36:04;12.75;;;11.32;;
30420;SDS011;17218;54.070;10.012;2022-09-09T08:38:32;11.25;;;10.10;;
30420;SDS011;17218;54.070;10.012;2022-09-09T08:41:01;11.45;;;9.27;;
30420;SDS011;17218;54.070;10.012;2022-09-09T08:43:45;11.07;;;9.43;;
30420;SDS011;17218;54.070;10.012;2022-09-09T08:46:15;11.70;;;9.30;;
30420;SDS011;17218;54.070;10.012;2022-09-09T08:48:51;9.30;;;7.85;;
30420;SDS011;17218;54.070;10.012;2022-09-09T08:51:23;9.40;;;7.00;;
30420;SDS011;17218;54.070;10.012;2022-09-09T08:53:53;8.48;;;7.50;;
30420;SDS011;17218;54.070;10.012;2022-09-09T08:56:21;6.90;;;6.30;;
30420;SDS011;17218;54.070;10.012;2022-09-09T08:58:51;7.55;;;5.68;;
30420;SDS011;17218;54.070;10.012;2022-09-09T09:01:26;7.05;;;5.38;;
30420;SDS011;17218;54.070;10.012;2022-09-09T09:04:02;8.90;;;5.93;;
30420;SDS011;17218;54.070;10.012;2022-09-09T09:06:42;7.68;;;5.85;;
30420;SDS011;17218;54.070;10.012;2022-09-09T09:09:17;6.57;;;5.82;;
30420;SDS011;17218;54.070;10.012;2022-09-09T09:11:51;7.90;;;5.80;;
30420;SDS011;17218;54.070;10.012;2022-09-09T09:14:21;6.63;;;4.78;;
30420;SDS011;17218;54.070;10.012;2022-09-09T09:16:52;5.57;;;4.47;;
30420;SDS011;17218;54.070;10.012;2022-09-09T09:19:20;5.90;;;4.63;;
30420;SDS011;17218;54.070;10.012;2022-09-09T09:21:51;6.80;;;4.80;;
30420;SDS011;17218;54.070;10.012;2022-09-09T09:24:25;10.00;;;5.45;;
30420;SDS011;17218;54.070;10.012;2022-09-09T09:26:58;5.43;;;4.93;;
30420;SDS011;17218;54.070;10.012;2022-09-09T09:29:30;6.50;;;5.22;;
30420;SDS011;17218;54.070;10.012;2022-09-09T09:31:59;5.68;;;4.78;;
30420;SDS011;17218;54.070;10.012;2022-09-09T09:34:29;5.95;;;4.47;;
30420;SDS011;17218;54.070;10.012;2022-09-09T09:36:56;6.72;;;4.82;;
30420;SDS011;17218;54.070;10.012;2022-09-09T09:39:24;6.35;;;4.68;;
30420;SDS011;17218;54.070;10.012;2022-09-09T09:41:52;5.60;;;4.28;;
30420;SDS011;17218;54.070;10.012;2022-09-09T09:44:21;5.10;;;4.53;;
30420;SDS011;17218;54.070;10.012;2022-09-09T09:46:50;6.18;;;4.10;;
30420;SDS011;17218;54.070;10.012;2022-09-09T09:49:18;6.07;;;4.30;;
30420;SDS011;17218;54.070;10.012;2022-09-09T09:51:45;5.28;;;4.10;;
30420;SDS011;17218;54.070;10.012;2022-09-09T09:54:14;4.70;;;4.10;;
30420;SDS011;17218;54.070;10.012;2022-09-09T09:56:48;4.97;;;3.40;;
30420;SDS011;17218;54.070;10.012;2022-09-09T09:59:22;3.70;;;3.20;;
30420;SDS011;17218;54.070;10.012;2022-09-09T10:02:05;5.15;;;3.10;;
30420;SDS011;17218;54.070;10.012;2022-09-09T10:04:41;3.67;;;2.60;;
30420;SDS011;17218;54.070;10.012;2022-09-09T10:07:10;3.17;;;2.80;;
30420;SDS011;17218;54.070;10.012;2022-09-09T10:09:37;5.35;;;2.80;;
30420;SDS011;17218;54.070;10.012;2022-09-09T10:12:05;3.75;;;2.83;;
30420;SDS011;17218;54.070;10.012;2022-09-09T10:14:46;3.58;;;2.80;;
30420;SDS011;17218;54.070;10.012;2022-09-09T10:17:22;5.75;;;2.80;;
30420;SDS011;17218;54.070;10.012;2022-09-09T10:20:04;3.42;;;2.88;;
30420;SDS011;17218;54.070;10.012;2022-09-09T10:22:45;3.47;;;2.60;;
30420;SDS011;17218;54.070;10.012;2022-09-09T10:25:25;2.70;;;2.40;;
30420;SDS011;17218;54.070;10.012;2022-09-09T10:31:09;4.85;;;1.88;;
30420;SDS011;17218;54.070;10.012;2022-09-09T10:33:45;3.80;;;1.92;;
30420;SDS011;17218;54.070;10.012;2022-09-09T10:36:18;2.25;;;1.70;;
30420;SDS011;17218;54.070;10.012;2022-09-09T10:38:47;4.97;;;2.25;;
30420;SDS011;17218;54.070;10.012;2022-09-09T10:41:18;4.07;;;1.60;;
30420;SDS011;17218;54.070;10.012;2022-09-09T10:46:42;2.47;;;1.08;;
30420;SDS011;17218;54.070;10.012;2022-09-09T10:49:36;2.65;;;1.30;;
30420;SDS011;17218;54.070;10.012;2022-09-09T10:52:21;3.65;;;1.20;;
30420;SDS011;17218;54.070;10.012;2022-09-09T10:54:54;3.05;;;1.25;;
30420;SDS011;17218;54.070;10.012;2022-09-09T10:57:25;2.72;;;1.27;;
30420;SDS011;17218;54.070;10.012;2022-09-09T10:59:57;2.08;;;1.00;;
30420;SDS011;17218;54.070;10.012;2022-09-09T11:02:28;3.08;;;1.27;;
30420;SDS011;17218;54.070;10.012;2022-09-09T11:04:57;2.05;;;1.05;;
30420;SDS011;17218;54.070;10.012;2022-09-09T11:07:32;2.40;;;1.17;;
30420;SDS011;17218;54.070;10.012;2022-09-09T11:10:05;2.20;;;1.25;;
30420;SDS011;17218;54.070;10.012;2022-09-09T11:12:42;2.33;;;1.08;;
30420;SDS011;17218;54.070;10.012;2022-09-09T11:15:14;3.85;;;1.40;;
30420;SDS011;17218;54.070;10.012;2022-09-09T11:17:46;1.48;;;0.90;;
30420;SDS011;17218;54.070;10.012;2022-09-09T11:20:19;3.92;;;1.05;;
30420;SDS011;17218;54.070;10.012;2022-09-09T11:22:48;2.25;;;1.02;;
30420;SDS011;17218;54.070;10.012;2022-09-09T11:25:20;1.40;;;0.90;;
30420;SDS011;17218;54.070;10.012;2022-09-09T11:27:56;1.98;;;1.08;;
30420;SDS011;17218;54.070;10.012;2022-09-09T11:30:33;2.00;;;1.20;;
30420;SDS011;17218;54.070;10.012;2022-09-09T11:33:23;2.53;;;1.40;;
30420;SDS011;17218;54.070;10.012;2022-09-09T11:36:01;1.88;;;0.90;;
30420;SDS011;17218;54.070;10.012;2022-09-09T11:38:42;1.77;;;1.15;;
30420;SDS011;17218;54.070;10.012;2022-09-09T11:41:11;2.15;;;1.50;;
30420;SDS011;17218;54.070;10.012;2022-09-09T11:43:40;2.67;;;1.73;;
30420;SDS011;17218;54.070;10.012;2022-09-09T11:46:08;4.32;;;1.13;;
30420;SDS011;17218;54.070;10.012;2022-09-09T11:48:38;2.35;;;0.90;;
30420;SDS011;17218;54.070;10.012;2022-09-09T11:51:09;3.85;;;1.08;;
30420;SDS011;17218;54.070;10.012;2022-09-09T11:53:48;1.02;;;0.70;;
30420;SDS011;17218;54.070;10.012;2022-09-09T11:56:26;1.52;;;1.00;;
30420;SDS011;17218;54.070;10.012;2022-09-09T11:59:00;1.67;;;1.05;;
30420;SDS011;17218;54.070;10.012;2022-09-09T12:01:38;2.65;;;0.95;;
30420;SDS011;17218;54.070;10.012;2022-09-09T12:04:20;3.03;;;1.02;;
30420;SDS011;17218;54.070;10.012;2022-09-09T12:06:54;2.30;;;1.00;;
30420;SDS011;17218;54.070;10.012;2022-09-09T12:09:27;1.05;;;0.90;;
30420;SDS011;17218;54.070;10.012;2022-09-09T12:12:07;4.10;;;1.38;;
30420;SDS011;17218;54.070;10.012;2022-09-09T12:14:54;1.13;;;0.70;;
30420;SDS011;17218;54.070;10.012;2022-09-09T12:17:25;2.17;;;1.00;;
30420;SDS011;17218;54.070;10.012;2022-09-09T12:19:59;2.45;;;0.88;;
30420;SDS011;17218;54.070;10.012;2022-09-09T12:22:31;1.33;;;0.90;;
30420;SDS011;17218;54.070;10.012;2022-09-09T12:25:09;1.80;;;0.80;;
30420;SDS011;17218;54.070;10.012;2022-09-09T12:27:45;2.50;;;0.90;;
30420;SDS011;17218;54.070;10.012;2022-09-09T12:30:21;1.20;;;0.68;;
30420;SDS011;17218;54.070;10.012;2022-09-09T12:32:58;3.53;;;1.58;;
30420;SDS011;17218;54.070;10.012;2022-09-09T12:35:27;2.28;;;1.02;;
30420;SDS011;17218;54.070;10.012;2022-09-09T12:37:56;1.60;;;0.90;;
30420;SDS011;17218;54.070;10.012;2022-09-09T12:40:28;2.88;;;0.90;;
30420;SDS011;17218;54.070;10.012;2022-09-09T12:42:56;3.30;;;0.90;;
30420;SDS011;17218;54.070;10.012;2022-09-09T12:45:24;3.00;;;1.15;;
30420;SDS011;17218;54.070;10.012;2022-09-09T12:47:53;1.30;;;0.90;;
30420;SDS011;17218;54.070;10.012;2022-09-09T12:50:24;2.60;;;0.93;;
30420;SDS011;17218;54.070;10.012;2022-09-09T12:52:52;2.65;;;0.93;;
30420;SDS011;17218;54.070;10.012;2022-09-09T12:55:23;2.78;;;1.00;;
30420;SDS011;17218;54.070;10.012;2022-09-09T12:57:56;1.25;;;0.80;;
30420;SDS011;17218;54.070;10.012;2022-09-09T13:00:25;3.67;;;1.20;;
30420;SDS011;17218;54.070;10.012;2022-09-09T13:02:52;2.65;;;0.90;;
30420;SDS011;17218;54.070;10.012;2022-09-09T13:05:21;2.22;;;0.82;;
30420;SDS011;17218;54.070;10.012;2022-09-09T13:07:49;4.10;;;1.23;;
30420;SDS011;17218;54.070;10.012;2022-09-09T13:10:20;4.75;;;1.08;;
30420;SDS011;17218;54.070;10.012;2022-09-09T13:12:51;1.98;;;0.65;;
30420;SDS011;17218;54.070;10.012;2022-09-09T13:15:21;1.67;;;0.88;;
30420;SDS011;17218;54.070;10.012;2022-09-09T13:17:52;1.52;;;0.73;;
30420;SDS011;17218;54.070;10.012;2022-09-09T13:20:20;2.60;;;0.70;;
30420;SDS011;17218;54.070;10.012;2022-09-09T13:22:48;2.92;;;0.80;;
30420;SDS011;17218;54.070;10.012;2022-09-09T13:25:18;1.63;;;0.70;;
30420;SDS011;17218;54.070;10.012;2022-09-09T13:27:57;3.08;;;0.75;;
30420;SDS011;17218;54.070;10.012;2022-09-09T13:30:29;3.13;;;0.98;;
30420;SDS011;17218;54.070;10.012;2022-09-09T13:33:02;2.65;;;1.13;;
30420;SDS011;17218;54.070;10.012;2022-09-09T13:35:31;2.30;;;0.90;;
30420;SDS011;17218;54.070;10.012;2022-09-09T13:37:59;3.13;;;1.10;;
30420;SDS011;17218;54.070;10.012;2022-09-09T13:40:33;1.90;;;0.90;;
30420;SDS011;17218;54.070;10.012;2022-09-09T13:43:01;2.13;;;0.80;;
30420;SDS011;17218;54.070;10.012;2022-09-09T13:45:30;1.73;;;0.65;;
30420;SDS011;17218;54.070;10.012;2022-09-09T13:47:58;1.98;;;0.80;;
30420;SDS011;17218;54.070;10.012;2022-09-09T13:50:35;1.98;;;0.88;;
30420;SDS011;17218;54.070;10.012;2022-09-09T13:53:02;2.28;;;0.90;;
30420;SDS011;17218;54.070;10.012;2022-09-09T13:55:29;3.28;;;1.00;;
30420;SDS011;17218;54.070;10.012;2022-09-09T13:57:57;1.45;;;0.90;;
30420;SDS011;17218;54.070;10.012;2022-09-09T14:00:25;1.85;;;0.90;;
30420;SDS011;17218;54.070;10.012;2022-09-09T14:02:56;2.72;;;1.05;;
30420;SDS011;17218;54.070;10.012;2022-09-09T14:05:22;3.33;;;1.45;;
30420;SDS011;17218;54.070;10.012;2022-09-09T14:07:50;3.55;;;1.13;;
30420;SDS011;17218;54.070;10.012;2022-09-09T14:10:16;2.47;;;1.20;;
30420;SDS011;17218;54.070;10.012;2022-09-09T14:12:43;1.40;;;0.90;;
30420;SDS011;17218;54.070;10.012;2022-09-09T14:15:11;1.85;;;0.90;;
30420;SDS011;17218;54.070;10.012;2022-09-09T14:17:38;2.25;;;1.08;;
30420;SDS011;17218;54.070;10.012;2022-09-09T14:20:06;4.38;;;1.38;;
30420;SDS011;17218;54.070;10.012;2022-09-09T14:22:35;1.98;;;0.95;;
30420;SDS011;17218;54.070;10.012;2022-09-09T14:25:02;2.70;;;1.13;;
30420;SDS011;17218;54.070;10.012;2022-09-09T14:27:30;3.20;;;1.50;;
30420;SDS011;17218;54.070;10.012;2022-09-09T14:29:57;2.03;;;1.20;;
30420;SDS011;17218;54.070;10.012;2022-09-09T14:32:25;3.13;;;1.00;;
30420;SDS011;17218;54.070;10.012;2022-09-09T14:34:51;1.70;;;1.35;;
30420;SDS011;17218;54.070;10.012;2022-09-09T14:37:19;4.30;;;1.77;;
30420;SDS011;17218;54.070;10.012;2022-09-09T14:39:46;6.03;;;2.38;;
30420;SDS011;17218;54.070;10.012;2022-09-09T14:42:15;2.05;;;1.70;;
30420;SDS011;17218;54.070;10.012;2022-09-09T14:44:42;3.38;;;1.70;;